Time;durP1;ratioP1;P1;durP2;ratioP2;P2;SDS_P1;SDS_P2;PMS_P1;PMS_P2;Temp;Humidity;BMP_temperature;BMP_pressure;BME280_temperature;BME280_humidity;BME280_pressure;Samples;Min_cycle;Max_cycle;Signal;HPM_P1;HPM_P2
2022/01/09 00:00:19;;;;;;;12.50;11.10;;;4.10;99.90;;;;;;5094656;28;20435;-68
2022/01/09 00:02:45;;;;;;;12.35;11.02;;;;;;;;;;5111131;28;20071;-67
2022/01/09 00:05:12;;;;;;;13.88;11.55;;;;;;;;;;5112257;28;20125;-68
2022/01/09 00:07:40;;;;;;;13.73;12.25;;;4.20;99.90;;;;;;5110992;28;20055;-68
2022/01/09 00:10:08;;;;;;;14.63;11.63;;;5.00;99.90;;;;;;5112671;28;20032;-68
2022/01/09 00:12:35;;;;;;;13.27;11.88;;;4.00;99.90;;;;;;5112838;28;20047;-68
2022/01/09 00:15:01;;;;;;;12.90;11.50;;;4.20;99.90;;;;;;5111471;28;20052;-68
2022/01/09 00:17:27;;;;;;;13.55;12.15;;;;;;;;;;5094268;28;20043;-68
2022/01/09 00:19:53;;;;;;;13.05;11.65;;;4.10;99.90;;;;;;5112295;28;20043;-68
2022/01/09 00:22:25;;;;;;;13.10;11.65;;;4.20;99.90;;;;;;5112762;28;20050;-68
2022/01/09 00:24:51;;;;;;;12.43;11.13;;;3.90;99.90;;;;;;5112616;28;20088;-67
2022/01/09 00:27:17;;;;;;;11.95;10.75;;;4.20;99.90;;;;;;5112303;28;20051;-68
2022/01/09 00:29:43;;;;;;;12.23;10.90;;;;;;;;;;5112030;28;20039;-68
2022/01/09 00:32:08;;;;;;;12.50;11.20;;;4.10;99.90;;;;;;5112671;28;20093;-67
2022/01/09 00:34:34;;;;;;;14.73;12.15;;;4.30;99.90;;;;;;5112811;28;20036;-68
2022/01/09 00:37:00;;;;;;;11.63;10.48;;;4.30;99.90;;;;;;5112940;28;20104;-68
2022/01/09 00:39:26;;;;;;;12.90;10.93;;;;;;;;;;5111418;28;20086;-68
2022/01/09 00:41:53;;;;;;;12.60;11.30;;;4.20;99.90;;;;;;5112521;28;20071;-68
2022/01/09 00:44:18;;;;;;;13.30;11.90;;;4.10;99.90;;;;;;5111076;28;20078;-68
2022/01/09 00:46:44;;;;;;;14.93;11.85;;;4.10;99.90;;;;;;5093545;28;20475;-68
2022/01/09 00:49:10;;;;;;;13.70;12.25;;;;;;;;;;5111602;28;20119;-68
2022/01/09 00:51:36;;;;;;;15.00;12.88;;;;;;;;;;5111755;28;20488;-68
2022/01/09 00:54:01;;;;;;;14.23;12.73;;;4.30;99.90;;;;;;5110285;28;20043;-68
2022/01/09 00:56:27;;;;;;;14.00;12.48;;;;;;;;;;5110708;28;20048;-68
2022/01/09 00:58:53;;;;;;;14.70;13.07;;;4.40;99.90;;;;;;5111685;28;20040;-68
2022/01/09 01:01:19;;;;;;;18.88;14.18;;;4.10;99.90;;;;;;5111610;28;20043;-68
2022/01/09 01:03:44;;;;;;;15.30;13.23;;;4.20;99.90;;;;;;5109728;28;20039;-68
2022/01/09 01:06:10;;;;;;;14.27;12.77;;;4.10;99.90;;;;;;5109935;28;20415;-68
2022/01/09 01:08:36;;;;;;;13.77;12.32;;;4.30;99.90;;;;;;5109765;28;20562;-68
2022/01/09 01:11:03;;;;;;;15.82;13.63;;;;;;;;;;5111387;28;20126;-68
2022/01/09 01:13:28;;;;;;;15.50;13.73;;;4.10;99.90;;;;;;5109837;28;20051;-68
2022/01/09 01:15:55;;;;;;;14.88;13.05;;;4.10;99.90;;;;;;5109717;28;20048;-67
2022/01/09 01:18:21;;;;;;;15.77;13.68;;;4.20;99.90;;;;;;5110900;28;20047;-68
2022/01/09 01:20:47;;;;;;;15.95;14.23;;;;;;;;;;5109862;28;20093;-68
2022/01/09 01:23:13;;;;;;;15.95;14.25;;;;;;;;;;5093177;28;20047;-67
2022/01/09 01:25:40;;;;;;;16.38;14.30;;;3.90;99.90;;;;;;5110416;28;20471;-66
2022/01/09 01:28:06;;;;;;;15.02;13.13;;;;;;;;;;5111257;28;20073;-66
2022/01/09 01:30:32;;;;;;;15.13;13.52;;;;;;;;;;5109998;28;20055;-65
2022/01/09 01:32:58;;;;;;;18.52;14.70;;;;;;;;;;5111305;28;20075;-65
2022/01/09 01:35:24;;;;;;;16.25;13.80;;;4.30;99.90;;;;;;5111326;28;20107;-66
2022/01/09 01:37:49;;;;;;;18.33;15.63;;;4.80;99.90;;;;;;5109869;28;20118;-65
2022/01/09 01:40:18;;;;;;;14.90;13.30;;;4.30;99.90;;;;;;5111049;28;20530;-66
2022/01/09 01:42:45;;;;;;;17.60;15.50;;;4.20;99.90;;;;;;5092070;28;20036;-66
2022/01/09 01:45:11;;;;;;;18.40;15.00;;;4.40;99.90;;;;;;5109356;28;20047;-66
2022/01/09 01:47:37;;;;;;;15.98;13.80;;;3.90;99.90;;;;;;5110790;28;20056;-66
2022/01/09 01:50:09;;;;;;;17.95;15.55;;;4.20;99.90;;;;;;5109581;28;20055;-66
2022/01/09 01:52:42;;;;;;;21.27;16.52;;;;;;;;;;5110911;28;20109;-66
2022/01/09 01:55:11;;;;;;;19.85;17.33;;;4.30;99.90;;;;;;5109246;28;20060;-66
2022/01/09 01:57:43;;;;;;;20.40;16.95;;;4.30;99.90;;;;;;5109648;28;20048;-66
2022/01/09 02:00:12;;;;;;;25.70;20.15;;;4.90;99.90;;;;;;5110901;28;20043;-66
2022/01/09 02:02:38;;;;;;;27.77;22.35;;;4.10;99.90;;;;;;5111023;28;20349;-68
2022/01/09 02:05:07;;;;;;;23.55;20.08;;;4.40;99.90;;;;;;5110850;28;20056;-68
2022/01/09 02:07:33;;;;;;;29.10;24.20;;;;;;;;;;5109890;28;20521;-68
2022/01/09 02:10:00;;;;;;;26.20;22.83;;;4.40;99.90;;;;;;5111038;28;20115;-68
2022/01/09 02:12:26;;;;;;;25.15;22.38;;;;;;;;;;5111295;28;20447;-68
2022/01/09 02:14:52;;;;;;;27.40;23.60;;;4.20;99.90;;;;;;5109686;28;20055;-68
2022/01/09 02:17:20;;;;;;;29.33;25.08;;;4.30;99.90;;;;;;5109147;28;20511;-68
2022/01/09 02:19:57;;;;;;;35.03;27.75;;;4.60;99.90;;;;;;5109250;28;20075;-68
2022/01/09 02:22:25;;;;;;;34.95;27.80;;;4.30;99.90;;;;;;5109234;28;20066;-68
2022/01/09 02:24:51;;;;;;;31.77;27.17;;;4.40;99.90;;;;;;5109458;28;20127;-68
2022/01/09 02:27:17;;;;;;;46.47;32.83;;;4.30;99.90;;;;;;5110595;28;20036;-68
2022/01/09 02:29:47;;;;;;;38.15;28.63;;;4.40;99.90;;;;;;5109363;28;20120;-68
2022/01/09 02:32:16;;;;;;;43.90;32.58;;;;;;;;;;5109403;28;20146;-68
2022/01/09 02:34:46;;;;;;;47.67;35.35;;;4.50;99.90;;;;;;5109011;28;20047;-68
2022/01/09 02:37:11;;;;;;;43.08;33.60;;;4.40;99.90;;;;;;5110123;28;20044;-68
2022/01/09 02:39:37;;;;;;;42.67;33.67;;;4.70;99.90;;;;;;5108694;28;20186;-68
2022/01/09 02:42:03;;;;;;;48.28;37.10;;;;;;;;;;5110186;28;20031;-68
2022/01/09 02:44:29;;;;;;;51.97;37.88;;;;;;;;;;5109016;28;20050;-69
2022/01/09 02:47:02;;;;;;;44.28;34.58;;;;;;;;;;5110225;28;20165;-69
2022/01/09 02:49:29;;;;;;;49.50;37.22;;;;;;;;;;5110373;28;20039;-68
2022/01/09 02:51:57;;;;;;;53.20;39.15;;;4.10;99.90;;;;;;5110163;28;20039;-68
2022/01/09 02:57:08;;;;;;;49.47;36.15;;;;;;;;;;5113636;28;20054;-69
2022/01/09 02:59:33;;;;;;;58.03;38.60;;;4.70;99.90;;;;;;5113708;28;20039;-68
2022/01/09 03:01:59;;;;;;;55.83;37.05;;;;;;;;;;5112134;28;20403;-68
2022/01/09 03:04:25;;;;;;;50.40;36.72;;;;;;;;;;5113303;28;20063;-69
2022/01/09 03:06:51;;;;;;;59.80;39.00;;;4.50;99.90;;;;;;5113703;28;20058;-69
2022/01/09 03:09:18;;;;;;;60.10;37.55;;;4.80;99.90;;;;;;5112499;28;20039;-68
2022/01/09 03:11:47;;;;;;;61.05;37.92;;;;;;;;;;5113321;28;20506;-68
2022/01/09 03:14:13;;;;;;;54.10;35.45;;;4.50;99.90;;;;;;5112117;28;20495;-68
2022/01/09 03:16:39;;;;;;;58.22;36.72;;;4.50;99.90;;;;;;5113378;28;20046;-68
2022/01/09 03:19:05;;;;;;;50.97;33.75;;;;;;;;;;5113264;28;20383;-68
2022/01/09 03:21:31;;;;;;;65.10;37.67;;;;;;;;;;5112176;28;20043;-69
2022/01/09 03:23:57;;;;;;;52.95;34.92;;;4.30;99.90;;;;;;5112301;28;20054;-68
2022/01/09 03:26:23;;;;;;;49.50;32.65;;;;;;;;;;5112083;28;20058;-69
2022/01/09 03:28:49;;;;;;;47.90;32.08;;;4.50;99.90;;;;;;5112125;28;20050;-69
2022/01/09 03:31:15;;;;;;;51.42;30.77;;;;;;;;;;5113340;28;20146;-69
2022/01/09 03:33:41;;;;;;;39.55;24.35;;;;;;;;;;5113389;28;20098;-69
2022/01/09 03:36:07;;;;;;;49.42;29.20;;;;;;;;;;5111917;28;20495;-69
2022/01/09 03:38:33;;;;;;;45.67;26.05;;;;;;;;;;5113069;28;20441;-69
2022/01/09 03:40:59;;;;;;;39.53;23.58;;;4.40;99.90;;;;;;5112767;28;20035;-69
2022/01/09 03:43:24;;;;;;;40.53;23.85;;;4.80;99.90;;;;;;5112783;28;20050;-69
2022/01/09 03:45:50;;;;;;;46.03;24.55;;;;;;;;;;5112828;28;20444;-69
2022/01/09 03:48:16;;;;;;;44.55;24.38;;;4.80;99.90;;;;;;5111341;28;20051;-69
2022/01/09 03:50:49;;;;;;;46.67;24.00;;;;;;;;;;5112213;28;20519;-69
2022/01/09 03:53:15;;;;;;;42.97;23.70;;;4.50;99.90;;;;;;5113086;28;20062;-69
2022/01/09 03:55:42;;;;;;;53.05;24.42;;;4.80;99.90;;;;;;5111302;28;20047;-69
2022/01/09 03:58:07;;;;;;;46.30;22.65;;;4.60;99.90;;;;;;5112612;28;20043;-69
2022/01/09 04:00:33;;;;;;;49.75;22.52;;;;;;;;;;5111289;28;20046;-68
2022/01/09 04:03:01;;;;;;;47.28;21.65;;;;;;;;;;5111737;28;20420;-69
2022/01/09 04:05:27;;;;;;;52.92;20.25;;;5.50;99.90;;;;;;5110515;28;20055;-69
2022/01/09 04:07:53;;;;;;;57.17;19.77;;;5.10;99.90;;;;;;5111211;28;20063;-69
2022/01/09 04:10:20;;;;;;;50.45;17.67;;;4.60;99.90;;;;;;5111306;28;20035;-69
2022/01/09 04:12:49;;;;;;;57.05;15.30;;;4.40;99.90;;;;;;5112623;28;20047;-69
2022/01/09 04:15:16;;;;;;;58.55;14.25;;;5.00;99.90;;;;;;5111239;28;20055;-68
2022/01/09 04:20:09;;;;;;;57.15;10.50;;;5.20;99.90;;;;;;5112553;28;20087;-68
2022/01/09 04:22:34;;;;;;;67.22;10.38;;;5.20;99.90;;;;;;5112074;28;20046;-68
2022/01/09 04:25:00;;;;;;;67.80;9.80;;;5.90;99.90;;;;;;5093740;28;20047;-68
2022/01/09 04:27:26;;;;;;;88.15;10.82;;;5.30;99.90;;;;;;5111942;28;20047;-68
2022/01/09 04:29:52;;;;;;;76.55;8.95;;;5.30;99.90;;;;;;5110598;28;20052;-69
2022/01/09 04:32:18;;;;;;;71.20;9.13;;;;;;;;;;5110569;28;20055;-69
2022/01/09 04:34:44;;;;;;;89.55;9.32;;;5.80;99.90;;;;;;5110738;28;20055;-69
2022/01/09 04:37:10;;;;;;;99.13;9.77;;;5.80;99.90;;;;;;5110402;28;20052;-69
2022/01/09 04:39:35;;;;;;;85.53;9.15;;;5.60;99.90;;;;;;5110428;28;20395;-69
2022/01/09 04:42:02;;;;;;;81.85;9.75;;;5.50;99.90;;;;;;5110150;28;20490;-69
2022/01/09 04:44:28;;;;;;;86.00;9.60;;;;;;;;;;5110288;28;20148;-68
2022/01/09 04:47:00;;;;;;;67.57;7.35;;;;;;;;;;5110227;28;20043;-69
2022/01/09 04:49:31;;;;;;;84.13;8.73;;;5.90;99.90;;;;;;5111342;28;20118;-69
2022/01/09 04:51:57;;;;;;;83.15;8.50;;;5.70;99.90;;;;;;5111514;28;20482;-69
2022/01/09 04:54:23;;;;;;;85.13;9.20;;;5.70;99.90;;;;;;5111367;28;20075;-69
2022/01/09 04:56:49;;;;;;;86.32;9.25;;;5.90;99.90;;;;;;5110102;28;20143;-69
2022/01/09 04:59:14;;;;;;;68.95;7.82;;;5.60;99.90;;;;;;5110285;28;20047;-68
2022/01/09 05:01:40;;;;;;;73.10;7.97;;;5.80;99.90;;;;;;5111545;28;20050;-70
2022/01/09 05:04:06;;;;;;;65.72;8.02;;;;;;;;;;5109935;28;20116;-71
2022/01/09 05:06:33;;;;;;;73.85;8.50;;;5.80;99.90;;;;;;5111277;28;20051;-70
2022/01/09 05:08:59;;;;;;;55.63;7.40;;;6.10;99.90;;;;;;5111226;28;20217;-70
2022/01/09 05:11:24;;;;;;;56.78;7.80;;;5.80;99.90;;;;;;5109714;28;20122;-69
2022/01/09 05:13:50;;;;;;;74.57;8.05;;;5.60;99.90;;;;;;5111260;28;20635;-70
2022/01/09 05:16:16;;;;;;;64.95;6.97;;;;;;;;;;5110381;28;20047;-69
2022/01/09 05:18:52;;;;;;;59.92;8.43;;;6.40;99.90;;;;;;5109986;28;20054;-69
2022/01/09 05:21:18;;;;;;;57.38;6.55;;;;;;;;;;5110258;28;20059;-70
2022/01/09 05:23:44;;;;;;;59.85;6.88;;;;;;;;;;5111141;28;20399;-69
2022/01/09 05:26:10;;;;;;;58.08;6.93;;;5.80;99.90;;;;;;5110844;28;20108;-70
2022/01/09 05:28:36;;;;;;;49.55;7.40;;;;;;;;;;5109665;28;20562;-70
2022/01/09 05:31:05;;;;;;;56.35;6.65;;;5.70;99.90;;;;;;5111139;28;20037;-70
2022/01/09 05:33:31;;;;;;;50.30;6.53;;;;;;;;;;5109587;28;20051;-70
2022/01/09 05:35:57;;;;;;;48.25;7.45;;;5.90;99.90;;;;;;5110812;28;20085;-70
2022/01/09 05:38:22;;;;;;;37.97;5.85;;;5.80;99.90;;;;;;5109269;28;20056;-70
2022/01/09 05:40:48;;;;;;;42.58;6.15;;;6.30;99.90;;;;;;5109368;28;20055;-70
2022/01/09 05:43:16;;;;;;;43.20;5.80;;;5.80;99.90;;;;;;5109623;28;20050;-69
2022/01/09 05:45:44;;;;;;;44.13;5.35;;;5.40;99.90;;;;;;5092486;28;20108;-71
2022/01/09 05:48:11;;;;;;;40.00;5.95;;;5.50;99.90;;;;;;5109204;28;20043;-76
2022/01/09 05:50:37;;;;;;;45.58;5.95;;;;;;;;;;5109054;28;20502;-77
2022/01/09 05:53:03;;;;;;;44.97;5.82;;;5.20;99.90;;;;;;5109080;28;20036;-77
2022/01/09 05:55:30;;;;;;;37.47;5.72;;;5.10;99.90;;;;;;5109274;28;20059;-76
2022/01/09 05:57:56;;;;;;;41.95;5.57;;;5.60;99.90;;;;;;5110510;28;20048;-76
2022/01/09 06:00:23;;;;;;;49.53;7.32;;;5.90;99.90;;;;;;5109550;28;20402;-76
2022/01/09 06:02:49;;;;;;;41.97;5.65;;;;;;;;;;5110661;28;20039;-76
2022/01/09 06:05:15;;;;;;;34.83;5.18;;;;;;;;;;5108799;28;20134;-76
2022/01/09 06:07:42;;;;;;;34.25;5.45;;;5.50;99.90;;;;;;5108922;28;20048;-76
2022/01/09 06:10:09;;;;;;;38.28;5.25;;;5.50;99.90;;;;;;5109048;28;20094;-76
2022/01/09 06:12:36;;;;;;;39.42;5.40;;;5.60;99.90;;;;;;5109088;28;20078;-70
2022/01/09 06:15:02;;;;;;;34.13;5.43;;;5.70;99.90;;;;;;5110295;28;20075;-70
2022/01/09 06:17:28;;;;;;;39.83;5.75;;;;;;;;;;5092509;28;20051;-70
2022/01/09 06:19:55;;;;;;;31.48;5.35;;;5.70;99.90;;;;;;5110649;28;20135;-69
2022/01/09 06:22:21;;;;;;;40.92;5.55;;;;;;;;;;5110912;28;20098;-69
2022/01/09 06:24:50;;;;;;;38.13;5.68;;;5.30;99.90;;;;;;5110967;28;20040;-69
2022/01/09 06:27:17;;;;;;;36.58;4.93;;;;;;;;;;5109188;28;20140;-70
2022/01/09 06:29:43;;;;;;;32.67;5.22;;;5.50;99.90;;;;;;5114632;28;20487;-69
2022/01/09 06:32:09;;;;;;;40.00;5.28;;;5.20;99.90;;;;;;5113122;28;20118;-69
2022/01/09 06:34:35;;;;;;;41.17;5.82;;;5.50;99.90;;;;;;5114307;28;20088;-69
2022/01/09 06:37:01;;;;;;;38.45;5.68;;;;;;;;;;5112645;28;20048;-69
2022/01/09 06:39:27;;;;;;;39.72;5.60;;;5.30;99.90;;;;;;5112916;28;20130;-69
2022/01/09 06:41:53;;;;;;;33.63;5.53;;;;;;;;;;5114107;28;20165;-69
2022/01/09 06:44:19;;;;;;;36.40;5.20;;;5.40;99.90;;;;;;5114287;28;20042;-69
2022/01/09 06:46:44;;;;;;;30.33;4.95;;;5.10;99.90;;;;;;5113936;28;20041;-69
2022/01/09 06:49:13;;;;;;;40.67;5.25;;;5.30;99.90;;;;;;5112631;28;20044;-70
2022/01/09 06:51:38;;;;;;;31.27;4.85;;;5.30;99.90;;;;;;5112588;28;20047;-70
2022/01/09 06:54:04;;;;;;;29.83;4.75;;;;;;;;;;5112835;28;20058;-70
2022/01/09 06:56:30;;;;;;;43.80;5.22;;;5.80;99.90;;;;;;5114226;28;20074;-69
2022/01/09 06:58:56;;;;;;;27.40;4.55;;;5.60;99.90;;;;;;5112412;28;20395;-76
2022/01/09 07:01:22;;;;;;;34.67;5.07;;;5.40;99.90;;;;;;5112275;28;20093;-76
2022/01/09 07:03:48;;;;;;;32.17;4.60;;;;;;;;;;5113619;28;20043;-76
2022/01/09 07:06:14;;;;;;;32.25;4.13;;;4.80;99.90;;;;;;5113908;28;20046;-76
2022/01/09 07:08:40;;;;;;;31.42;4.47;;;4.90;99.90;;;;;;5112302;28;20047;-76
2022/01/09 07:11:06;;;;;;;27.45;4.50;;;5.40;99.90;;;;;;5113620;28;20461;-76
2022/01/09 07:13:32;;;;;;;25.50;4.25;;;5.40;99.90;;;;;;5113762;28;20048;-76
2022/01/09 07:15:58;;;;;;;30.90;4.28;;;5.60;99.90;;;;;;5112392;28;20151;-76
2022/01/09 07:18:24;;;;;;;31.08;5.03;;;5.10;99.90;;;;;;5111945;28;20122;-75
2022/01/09 07:20:51;;;;;;;24.27;4.03;;;4.80;99.90;;;;;;5113032;28;20050;-76
2022/01/09 07:23:18;;;;;;;24.40;4.15;;;;;;;;;;5113307;28;20042;-76
2022/01/09 07:25:44;;;;;;;21.20;3.63;;;5.10;99.90;;;;;;5095057;28;20122;-76
2022/01/09 07:28:09;;;;;;;27.40;4.30;;;5.00;99.90;;;;;;5111624;28;20539;-76
2022/01/09 07:30:35;;;;;;;27.25;4.30;;;5.80;99.90;;;;;;5112407;28;20062;-76
2022/01/09 07:33:03;;;;;;;26.60;4.20;;;;;;;;;;5112650;28;20449;-76
2022/01/09 07:35:29;;;;;;;28.55;4.18;;;5.40;99.90;;;;;;5112766;28;20405;-76
2022/01/09 07:37:55;;;;;;;22.85;3.65;;;5.40;99.90;;;;;;5112814;28;20126;-76
2022/01/09 07:40:21;;;;;;;20.33;3.38;;;5.20;99.90;;;;;;5111670;28;20040;-76
2022/01/09 07:42:48;;;;;;;28.10;3.70;;;5.40;99.90;;;;;;5094342;28;20071;-76
2022/01/09 07:45:22;;;;;;;24.50;4.15;;;5.00;99.90;;;;;;5111506;28;20069;-76
2022/01/09 07:47:48;;;;;;;22.55;3.63;;;5.30;99.90;;;;;;5111605;28;20384;-76
2022/01/09 07:50:14;;;;;;;16.08;3.17;;;5.10;99.90;;;;;;5111913;28;20055;-76
2022/01/09 07:52:41;;;;;;;16.70;3.35;;;5.10;99.90;;;;;;5110667;28;20044;-76
2022/01/09 07:55:08;;;;;;;16.85;3.08;;;5.20;99.90;;;;;;5107038;27;20569;-75
2022/01/09 07:57:34;;;;;;;18.52;3.15;;;5.00;99.90;;;;;;5130949;27;20047;-75
2022/01/09 08:00:03;;;;;;;15.40;3.30;;;5.00;99.90;;;;;;5117969;27;20389;-75
2022/01/09 08:02:29;;;;;;;13.43;3.15;;;5.20;99.90;;;;;;5117362;27;20108;-76
2022/01/09 08:04:55;;;;;;;17.40;3.40;;;4.90;99.90;;;;;;5120368;27;20055;-76
2022/01/09 08:07:22;;;;;;;16.85;2.75;;;4.90;99.90;;;;;;5118209;27;20068;-76
2022/01/09 08:09:49;;;;;;;16.80;3.05;;;;;;;;;;5118667;27;20055;-75
2022/01/09 08:12:15;;;;;;;16.17;2.97;;;5.10;99.90;;;;;;5110678;28;20123;-76
2022/01/09 08:14:41;;;;;;;17.95;3.50;;;5.10;99.90;;;;;;5109775;28;20071;-76
2022/01/09 08:17:07;;;;;;;17.73;3.00;;;4.50;99.90;;;;;;5106991;28;20050;-75
2022/01/09 08:19:35;;;;;;;14.77;3.15;;;5.00;99.90;;;;;;5106319;28;20052;-75
2022/01/09 08:22:01;;;;;;;16.48;3.60;;;;;;;;;;5089778;28;20052;-75
2022/01/09 08:24:26;;;;;;;15.63;2.80;;;4.80;99.90;;;;;;5089132;28;20052;-75
2022/01/09 08:26:52;;;;;;;18.08;3.20;;;5.40;99.90;;;;;;5089647;28;20066;-75
2022/01/09 08:29:18;;;;;;;17.15;3.20;;;4.90;99.90;;;;;;5089282;28;20048;-76
2022/01/09 08:31:44;;;;;;;17.85;3.40;;;;;;;;;;5089559;28;20570;-76
2022/01/09 08:34:10;;;;;;;12.10;3.25;;;;;;;;;;5089697;28;20062;-76
2022/01/09 08:36:37;;;;;;;15.98;3.10;;;4.90;99.90;;;;;;5072326;28;20052;-76
2022/01/09 08:39:04;;;;;;;13.93;3.13;;;4.20;99.90;;;;;;5090646;28;20123;-76
2022/01/09 08:41:30;;;;;;;19.88;3.40;;;5.40;99.90;;;;;;5088568;28;20511;-76
2022/01/09 08:43:56;;;;;;;15.00;2.63;;;;;;;;;;5089475;28;20051;-76
2022/01/09 08:46:21;;;;;;;18.42;3.13;;;4.80;99.90;;;;;;5100734;28;20077;-76
2022/01/09 08:48:48;;;;;;;15.25;3.20;;;5.00;99.90;;;;;;5108917;28;20377;-76
2022/01/09 08:51:14;;;;;;;18.33;2.95;;;;;;;;;;5108851;28;20047;-75
2022/01/09 08:53:41;;;;;;;19.55;3.03;;;5.20;99.90;;;;;;5092229;28;20042;-76
2022/01/09 08:56:09;;;;;;;14.40;2.92;;;5.00;99.90;;;;;;5110598;27;20048;-76
2022/01/09 08:58:35;;;;;;;14.00;3.03;;;5.20;99.90;;;;;;5110333;28;20043;-76
2022/01/09 09:01:00;;;;;;;15.05;2.70;;;5.40;99.90;;;;;;5108838;28;20108;-75
2022/01/09 09:03:26;;;;;;;13.85;3.10;;;4.50;99.90;;;;;;5109064;28;20126;-76
2022/01/09 09:05:52;;;;;;;16.27;3.55;;;5.20;99.90;;;;;;5125849;27;20058;-75
2022/01/09 09:08:18;;;;;;;13.75;2.80;;;5.30;99.90;;;;;;5109525;28;20051;-76
2022/01/09 09:10:43;;;;;;;18.70;3.20;;;5.30;99.90;;;;;;5109733;27;20503;-76
2022/01/09 09:13:09;;;;;;;12.73;2.75;;;5.00;99.90;;;;;;5110285;28;20487;-76
2022/01/09 09:15:36;;;;;;;16.02;3.25;;;5.30;99.90;;;;;;5108819;27;20047;-75
2022/01/09 09:18:03;;;;;;;17.70;3.30;;;4.70;99.90;;;;;;5109219;28;20072;-75
2022/01/09 09:20:29;;;;;;;16.60;3.20;;;;;;;;;;5108906;28;20165;-75
2022/01/09 09:22:55;;;;;;;14.77;2.75;;;;;;;;;;5109988;27;20198;-75
2022/01/09 09:25:21;;;;;;;15.88;2.85;;;;;;;;;;5108976;28;20777;-75
2022/01/09 09:27:47;;;;;;;19.65;3.45;;;5.10;99.90;;;;;;5107988;28;20423;-75
2022/01/09 09:30:14;;;;;;;18.92;3.58;;;;;;;;;;5108679;28;20050;-75
2022/01/09 09:32:42;;;;;;;15.25;3.15;;;5.40;99.90;;;;;;5108247;28;20047;-75
2022/01/09 09:35:08;;;;;;;15.10;3.08;;;5.00;99.90;;;;;;5108674;28;20050;-75
2022/01/09 09:37:34;;;;;;;18.67;3.35;;;;;;;;;;5091387;28;20062;-75
2022/01/09 09:40:00;;;;;;;20.23;3.95;;;5.60;99.90;;;;;;5101464;28;20077;-75
2022/01/09 09:42:26;;;;;;;14.85;3.28;;;;;;;;;;5107904;28;20542;-76
2022/01/09 09:44:52;;;;;;;20.55;3.13;;;;;;;;;;5108301;28;20479;-73
2022/01/09 09:47:21;;;;;;;14.85;3.30;;;5.40;99.90;;;;;;5108376;28;20059;-74
2022/01/09 09:49:48;;;;;;;17.92;3.90;;;4.70;99.90;;;;;;5108251;28;20048;-76
2022/01/09 09:52:17;;;;;;;17.08;3.30;;;5.50;99.90;;;;;;5125611;28;20048;-76
2022/01/09 09:54:44;;;;;;;19.20;3.55;;;5.50;99.90;;;;;;5108721;28;20054;-76
2022/01/09 09:57:10;;;;;;;13.90;3.33;;;5.40;99.90;;;;;;5108907;28;20074;-76
2022/01/09 09:59:37;;;;;;;18.92;3.45;;;5.20;99.90;;;;;;5110121;28;20046;-76
2022/01/09 10:02:14;;;;;;;17.25;3.10;;;5.60;99.90;;;;;;5108657;27;20047;-76
2022/01/09 10:05:03;;;;;;;18.25;3.50;;;5.50;99.90;;;;;;5112523;28;20053;-76
2022/01/09 10:07:29;;;;;;;15.70;3.05;;;5.40;99.90;;;;;;5112620;28;20056;-78
2022/01/09 10:10:02;;;;;;;17.35;3.53;;;6.20;99.90;;;;;;5112244;28;20043;-77
2022/01/09 10:12:30;;;;;;;19.13;3.60;;;5.50;99.90;;;;;;5111869;27;20055;-77
2022/01/09 10:14:58;;;;;;;16.98;3.60;;;5.60;99.90;;;;;;5112481;28;20061;-77
2022/01/09 10:17:25;;;;;;;20.17;3.30;;;4.90;99.90;;;;;;5095134;27;20076;-77
2022/01/09 10:19:57;;;;;;;16.35;3.60;;;5.80;99.90;;;;;;5113745;28;20043;-77
2022/01/09 10:22:34;;;;;;;18.70;3.25;;;5.60;99.90;;;;;;5112363;28;20040;-77
2022/01/09 10:25:25;;;;;;;16.60;3.45;;;5.80;99.90;;;;;;5129292;27;20444;-76
2022/01/09 10:27:56;;;;;;;20.33;3.78;;;5.70;99.90;;;;;;5101870;27;20051;-76
2022/01/09 10:30:24;;;;;;;17.65;3.55;;;5.70;99.90;;;;;;5113329;28;20047;-76
2022/01/09 10:32:56;;;;;;;15.55;3.42;;;5.70;99.90;;;;;;5111569;27;20047;-69
2022/01/09 10:35:25;;;;;;;18.00;3.17;;;5.60;99.90;;;;;;5113699;28;20098;-70
2022/01/09 10:38:11;;;;;;;17.10;3.35;;;7.30;99.90;;;;;;5112981;28;20100;-68
2022/01/09 10:40:39;;;;;;;16.45;3.40;;;5.90;99.90;;;;;;5092472;28;20076;-67
2022/01/09 10:43:16;;;;;;;16.83;3.50;;;5.80;99.90;;;;;;5091556;28;20472;-67
2022/01/09 10:45:56;;;;;;;18.60;3.47;;;5.50;99.90;;;;;;5091463;28;20048;-67
2022/01/09 10:48:25;;;;;;;22.08;4.05;;;4.30;99.90;;;;;;5092477;28;20488;-67
2022/01/09 10:50:52;;;;;;;25.05;4.07;;;5.90;99.90;;;;;;5108180;28;20119;-67
2022/01/09 10:53:30;;;;;;;24.20;4.82;;;5.90;99.90;;;;;;5091267;28;20032;-67
2022/01/09 10:56:20;;;;;;;25.83;6.28;;;5.80;99.90;;;;;;5091519;28;20048;-67
2022/01/09 10:58:55;;;;;;;18.58;4.80;;;5.80;99.90;;;;;;5090843;28;20526;-67
2022/01/09 11:01:25;;;;;;;20.48;4.95;;;5.60;99.90;;;;;;5091647;28;20484;-67
2022/01/09 11:03:59;;;;;;;18.23;4.25;;;5.90;99.90;;;;;;5098823;27;20043;-67
2022/01/09 11:06:31;;;;;;;20.40;3.95;;;5.80;99.90;;;;;;5111486;28;20043;-68
2022/01/09 11:08:57;;;;;;;19.50;3.67;;;;;;;;;;5111183;27;20042;-68
2022/01/09 11:14:04;;;;;;;21.10;3.92;;;5.50;99.90;;;;;;5111349;28;20066;-67
2022/01/09 11:16:37;;;;;;;18.75;3.72;;;6.00;99.90;;;;;;5110756;28;20060;-68
2022/01/09 11:19:03;;;;;;;16.50;4.47;;;;;;;;;;5110934;28;20097;-68
2022/01/09 11:21:29;;;;;;;19.45;3.72;;;6.60;99.90;;;;;;5110672;28;20048;-67
2022/01/09 11:24:22;;;;;;;20.58;3.60;;;6.60;99.90;;;;;;5112648;28;20493;-69
2022/01/09 11:27:08;;;;;;;21.20;4.85;;;6.90;99.90;;;;;;5110803;28;20471;-68
2022/01/09 11:29:59;;;;;;;22.75;5.28;;;6.60;99.90;;;;;;5112386;27;20124;-69
2022/01/09 11:32:34;;;;;;;20.55;4.85;;;6.60;99.90;;;;;;5110991;28;20566;-68
2022/01/09 11:35:20;;;;;;;17.02;4.47;;;6.80;99.90;;;;;;5110930;27;20039;-68
2022/01/09 11:38:11;;;;;;;20.33;4.30;;;6.70;99.90;;;;;;5111191;28;20342;-68
2022/01/09 11:40:39;;;;;;;17.42;3.70;;;;;;;;;;5110492;28;20060;-68
2022/01/09 11:43:14;;;;;;;21.13;3.83;;;6.90;99.90;;;;;;5112398;28;20105;-68
2022/01/09 11:45:47;;;;;;;18.23;4.10;;;6.80;99.90;;;;;;5110446;28;20193;-68
2022/01/09 11:48:16;;;;;;;24.00;4.28;;;6.80;99.90;;;;;;5110953;28;20048;-68
2022/01/09 11:51:15;;;;;;;20.67;4.15;;;6.40;99.90;;;;;;5112020;27;20087;-68
2022/01/09 11:54:18;;;;;;;23.63;3.90;;;7.10;99.90;;;;;;5060926;28;20091;-75
2022/01/09 11:56:47;;;;;;;24.25;4.03;;;6.60;99.90;;;;;;5048168;28;20055;-74
2022/01/09 11:59:26;;;;;;;18.20;4.32;;;7.40;99.90;;;;;;5032024;28;20045;-74
2022/01/09 12:02:04;;;;;;;19.73;3.80;;;6.90;99.90;;;;;;5031435;28;20056;-67
2022/01/09 12:04:35;;;;;;;18.08;3.58;;;6.90;99.90;;;;;;5031543;28;20068;-69
2022/01/09 12:07:14;;;;;;;22.15;3.72;;;6.70;99.90;;;;;;5048277;28;20616;-68
2022/01/09 12:09:41;;;;;;;22.77;3.92;;;6.80;99.90;;;;;;5048395;28;20116;-68
2022/01/09 12:12:10;;;;;;;21.02;3.90;;;6.80;99.90;;;;;;5031674;28;20053;-68
2022/01/09 12:14:44;;;;;;;21.88;4.03;;;6.80;99.90;;;;;;5031045;28;20135;-68
2022/01/09 12:17:25;;;;;;;24.63;4.32;;;6.90;99.90;;;;;;5031350;28;20060;-70
2022/01/09 12:20:07;;;;;;;20.27;3.97;;;7.90;99.90;;;;;;5031506;28;20149;-71
2022/01/09 12:22:43;;;;;;;21.95;4.03;;;6.60;99.90;;;;;;5014390;28;20045;-71
2022/01/09 12:25:22;;;;;;;23.80;4.20;;;6.80;99.90;;;;;;5031192;28;20094;-71
2022/01/09 12:27:54;;;;;;;24.60;4.60;;;7.10;99.90;;;;;;5032052;28;20041;-70
2022/01/09 12:30:44;;;;;;;21.65;3.85;;;6.70;99.90;;;;;;5040990;28;20126;-70
2022/01/09 12:33:35;;;;;;;22.67;3.97;;;7.40;99.90;;;;;;5110883;28;20553;-71
2022/01/09 12:36:05;;;;;;;19.10;3.92;;;7.50;99.90;;;;;;5110667;28;20047;-71
2022/01/09 12:38:34;;;;;;;22.02;3.70;;;7.00;99.90;;;;;;5110370;28;20040;-70
2022/01/09 12:41:00;;;;;;;20.25;3.70;;;;;;;;;;5110342;28;20039;-70
2022/01/09 12:43:29;;;;;;;22.73;3.50;;;7.00;99.90;;;;;;5110741;28;20050;-71
2022/01/09 12:45:55;;;;;;;20.40;4.40;;;;;;;;;;5110421;28;20051;-70
2022/01/09 12:48:27;;;;;;;23.70;3.85;;;7.00;99.90;;;;;;5110475;28;20100;-71
2022/01/09 12:50:54;;;;;;;25.02;4.55;;;7.30;99.90;;;;;;5111545;28;20051;-70
2022/01/09 12:53:29;;;;;;;22.10;3.80;;;7.40;99.90;;;;;;5110466;28;20562;-71
2022/01/09 12:56:13;;;;;;;23.60;3.90;;;7.40;99.90;;;;;;5110202;28;20044;-71
2022/01/09 12:58:39;;;;;;;18.35;3.78;;;7.30;99.90;;;;;;5110303;28;20098;-71
2022/01/09 13:01:16;;;;;;;18.73;3.92;;;7.30;99.90;;;;;;5109999;28;20051;-71
2022/01/09 13:03:43;;;;;;;19.88;4.15;;;8.00;99.90;;;;;;5111061;28;20039;-71
2022/01/09 13:06:11;;;;;;;19.33;3.60;;;7.30;99.90;;;;;;5110132;28;20083;-76
2022/01/09 13:09:11;;;;;;;24.20;4.55;;;7.50;99.90;;;;;;5109908;28;20054;-76
2022/01/09 13:11:37;;;;;;;19.70;3.95;;;7.20;99.90;;;;;;5093562;28;20127;-76
2022/01/09 13:14:03;;;;;;;25.02;3.78;;;7.40;99.90;;;;;;5111301;28;20139;-75
2022/01/09 13:16:34;;;;;;;15.50;3.38;;;7.10;99.90;;;;;;5111095;28;20039;-76
2022/01/09 13:19:00;;;;;;;17.73;3.80;;;;;;;;;;5110364;27;20058;-76